createdAt,value
2023-06-14T00:00:44.523Z,100779.80
2023-06-14T00:03:13.182Z,100779.24
2023-06-14T00:05:44.186Z,100778.61
2023-06-14T00:08:11.920Z,100779.16
2023-06-14T00:10:42.207Z,100775.59
2023-06-14T00:13:12.535Z,100776.07
2023-06-14T00:15:40.063Z,100776.08
2023-06-14T00:18:07.670Z,100774.52
2023-06-14T00:20:35.214Z,100776.64
2023-06-14T00:23:02.872Z,100778.14
2023-06-14T00:25:30.635Z,100778.28
2023-06-14T00:27:58.618Z,100779.27
2023-06-14T00:30:26.660Z,100778.52
2023-06-14T00:32:54.325Z,100774.48
2023-06-14T00:35:22.020Z,100777.60
2023-06-14T00:37:49.615Z,100775.22
2023-06-14T00:40:17.310Z,100773.12
2023-06-14T00:42:46.852Z,100776.91
2023-06-14T00:45:14.489Z,100773.55
2023-06-14T00:47:42.897Z,100770.73
2023-06-14T00:50:11.067Z,100772.38
2023-06-14T00:52:38.717Z,100767.58
2023-06-14T00:55:07.106Z,100767.15
2023-06-14T00:57:42.051Z,100765.23
2023-06-14T01:00:11.255Z,100762.84
2023-06-14T01:02:39.739Z,100752.83
2023-06-14T01:05:11.268Z,100752.48
2023-06-14T01:07:57.823Z,100748.55
2023-06-14T01:10:54.625Z,100747.27
2023-06-14T01:13:34.076Z,100747.80
2023-06-14T01:16:01.720Z,100747.13
2023-06-14T01:18:30.956Z,100748.29
2023-06-14T01:20:58.876Z,100746.11
2023-06-14T01:23:26.588Z,100751.06
2023-06-14T01:25:54.324Z,100752.46
2023-06-14T01:28:22.623Z,100753.68
2023-06-14T01:30:54.561Z,100754.59
2023-06-14T01:33:24.834Z,100756.09
2023-06-14T01:35:53.240Z,100758.66
2023-06-14T01:38:23.057Z,100764.35
2023-06-14T01:40:52.004Z,100763.88
2023-06-14T01:43:19.547Z,100769.96
2023-06-14T01:45:48.490Z,100772.27
2023-06-14T01:48:16.513Z,100773.64
2023-06-14T01:50:43.978Z,100772.77
2023-06-14T01:53:11.652Z,100770.64
2023-06-14T01:55:39.182Z,100774.77
2023-06-14T01:58:09.556Z,100774.79
2023-06-14T02:00:37.358Z,100776.38
2023-06-14T02:03:07.861Z,100778.36
2023-06-14T02:05:36.043Z,100773.31
2023-06-14T02:08:03.710Z,100769.52
2023-06-14T02:10:32.699Z,100773.99
2023-06-14T02:13:00.374Z,100774.41
2023-06-14T02:15:34.826Z,100778.23
2023-06-14T02:18:05.855Z,100776.38
2023-06-14T02:20:34.445Z,100780.33
2023-06-14T02:23:02.324Z,100780.59
2023-06-14T02:25:32.623Z,100782.66
2023-06-14T02:28:00.175Z,100785.77
2023-06-14T02:30:27.724Z,100781.88
2023-06-14T02:32:58.279Z,100781.46
2023-06-14T02:35:27.828Z,100781.08
2023-06-14T02:37:57.128Z,100783.04
2023-06-14T02:40:24.830Z,100785.50
2023-06-14T02:42:52.423Z,100787.56
2023-06-14T02:45:20.021Z,100786.55
2023-06-14T02:47:49.344Z,100790.84
2023-06-14T02:50:18.283Z,100790.64
2023-06-14T02:52:46.730Z,100791.73
2023-06-14T02:55:14.438Z,100794.35
2023-06-14T02:57:42.368Z,100797.69
2023-06-14T03:00:14.886Z,100800.06
2023-06-14T03:02:44.497Z,100803.27
2023-06-14T03:05:12.448Z,100799.68
2023-06-14T03:07:46.419Z,100801.86
2023-06-14T03:10:14.670Z,100799.88
2023-06-14T03:12:43.862Z,100808.64
2023-06-14T03:15:14.531Z,100807.13
2023-06-14T03:17:47.087Z,100812.52
2023-06-14T03:20:17.529Z,100809.58
2023-06-14T03:22:48.985Z,100809.19
2023-06-14T03:25:16.805Z,100807.65
2023-06-14T03:27:45.211Z,100807.92
2023-06-14T03:30:13.444Z,100809.33
2023-06-14T03:32:41.755Z,100805.55
2023-06-14T03:35:10.097Z,100806.61
2023-06-14T03:37:37.691Z,100810.79
2023-06-14T03:40:07.309Z,100812.48
2023-06-14T03:42:37.489Z,100812.80
2023-06-14T03:45:05.836Z,100813.98
2023-06-14T03:47:33.687Z,100817.13
2023-06-14T03:50:02.341Z,100817.33
2023-06-14T03:52:30.633Z,100813.68
2023-06-14T03:55:55.559Z,100811.48
2023-06-14T03:57:46.198Z,100811.44
2023-06-14T04:00:16.737Z,100809.17
2023-06-14T04:02:45.713Z,100808.02
2023-06-14T04:05:13.652Z,100807.27
2023-06-14T04:07:50.031Z,100807.02
2023-06-14T04:10:17.883Z,100806.27
2023-06-14T04:12:46.490Z,100805.65
2023-06-14T04:15:21.343Z,100806.48
2023-06-14T04:17:52.475Z,100813.66
2023-06-14T04:20:23.224Z,100810.69
2023-06-14T04:22:50.890Z,100814.68
2023-06-14T04:25:23.743Z,100816.30
2023-06-14T04:27:53.758Z,100819.64
2023-06-14T04:30:26.940Z,100822.89
2023-06-14T04:32:56.954Z,100826.34
2023-06-14T04:35:26.671Z,100826.55
2023-06-14T04:37:55.075Z,100826.81
2023-06-14T04:40:24.097Z,100825.09
2023-06-14T04:42:52.268Z,100828.39
2023-06-14T04:45:20.722Z,100826.94
2023-06-14T04:47:49.220Z,100828.14
2023-06-14T04:50:17.908Z,100832.41
2023-06-14T04:52:45.524Z,100834.86
2023-06-14T04:55:13.127Z,100833.50
2023-06-14T04:57:41.964Z,100831.99
2023-06-14T05:00:13.101Z,100831.92
2023-06-14T05:02:41.864Z,100834.17
2023-06-14T05:05:10.193Z,100836.91
2023-06-14T05:07:41.149Z,100838.66
2023-06-14T05:10:10.832Z,100843.27
2023-06-14T05:12:38.530Z,100847.52
2023-06-14T05:15:10.074Z,100846.79
2023-06-14T05:17:37.933Z,100851.05
2023-06-14T05:20:07.190Z,100853.61
2023-06-14T05:22:34.670Z,100859.96
2023-06-14T05:25:03.057Z,100860.50
2023-06-14T05:27:30.572Z,100859.90
2023-06-14T05:29:59.980Z,100863.30
2023-06-14T05:32:27.654Z,100862.11
2023-06-14T05:34:55.691Z,100864.95
2023-06-14T05:37:23.170Z,100863.05
2023-06-14T05:39:50.678Z,100861.46
2023-06-14T05:42:18.273Z,100861.33
2023-06-14T05:44:45.822Z,100862.55
2023-06-14T05:47:13.995Z,100861.20
2023-06-14T05:49:41.894Z,100863.09
2023-06-14T05:52:09.612Z,100862.56
2023-06-14T05:54:37.431Z,100860.36
2023-06-14T05:57:07.328Z,100863.52
2023-06-14T05:59:35.217Z,100862.91
2023-06-14T06:02:04.075Z,100867.86
2023-06-14T06:04:32.879Z,100869.38
2023-06-14T06:07:01.058Z,100873.34
2023-06-14T06:09:44.096Z,100877.28
2023-06-14T06:12:11.777Z,100873.70
2023-06-14T06:14:39.749Z,100876.06
2023-06-14T06:17:07.862Z,100883.06
2023-06-14T06:19:35.587Z,100878.09
2023-06-14T06:22:09.647Z,100886.92
2023-06-14T06:24:41.405Z,100886.64
2023-06-14T06:27:13.926Z,100885.72
2023-06-14T06:29:45.248Z,100884.79
2023-06-14T06:32:13.201Z,100891.16
2023-06-14T06:34:42.792Z,100888.20
2023-06-14T06:37:12.410Z,100890.98
2023-06-14T06:39:43.123Z,100888.10
2023-06-14T06:42:12.365Z,100884.23
2023-06-14T06:44:43.557Z,100882.33
2023-06-14T06:47:12.552Z,100879.67
2023-06-14T06:49:43.855Z,100873.29
2023-06-14T06:52:11.765Z,100874.02
2023-06-14T06:54:39.509Z,100871.86
2023-06-14T06:57:11.744Z,100877.00
2023-06-14T06:59:41.619Z,100882.73
2023-06-14T07:02:09.565Z,100885.66
2023-06-14T07:04:37.222Z,100886.47
2023-06-14T07:07:07.842Z,100889.39
2023-06-14T07:09:35.547Z,100889.22
2023-06-14T07:12:03.728Z,100889.24
2023-06-14T07:14:31.691Z,100891.24
2023-06-14T07:16:59.325Z,100892.91
2023-06-14T07:19:27.873Z,100891.20
2023-06-14T07:21:55.668Z,100885.90
2023-06-14T07:24:24.022Z,100885.89
2023-06-14T07:26:52.572Z,100889.29
2023-06-14T07:29:20.918Z,100889.52
2023-06-14T07:31:48.635Z,100890.27
2023-06-14T07:34:16.416Z,100891.45
2023-06-14T07:36:45.817Z,100890.86
2023-06-14T07:39:13.995Z,100887.67
2023-06-14T07:41:43.412Z,100886.80
2023-06-14T07:44:11.643Z,100886.48
2023-06-14T07:46:39.556Z,100885.71
2023-06-14T07:49:07.781Z,100883.05
2023-06-14T07:51:35.516Z,100883.70
2023-06-14T07:54:04.316Z,100887.20
2023-06-14T07:56:32.105Z,100884.26
2023-06-14T07:59:00.047Z,100881.49
2023-06-14T08:01:31.784Z,100884.13
2023-06-14T08:04:00.507Z,100882.27
2023-06-14T08:06:28.439Z,100884.08
2023-06-14T08:08:56.285Z,100890.95
2023-06-14T08:11:37.936Z,100889.39
2023-06-14T08:14:05.974Z,100890.48
2023-06-14T08:16:34.638Z,100889.09
2023-06-14T08:19:04.998Z,100890.44
2023-06-14T08:21:38.529Z,100888.84
2023-06-14T08:24:20.714Z,100888.89
2023-06-14T08:26:48.584Z,100884.77
2023-06-14T08:29:22.228Z,100886.62
2023-06-14T08:31:51.007Z,100888.91
2023-06-14T08:34:24.066Z,100890.79
2023-06-14T08:36:52.136Z,100889.11
2023-06-14T08:39:23.613Z,100889.64
2023-06-14T08:41:51.405Z,100892.27
2023-06-14T08:44:19.014Z,100892.56
2023-06-14T08:46:50.007Z,100895.07
2023-06-14T08:49:18.089Z,100891.67
2023-06-14T08:51:46.210Z,100891.41
2023-06-14T08:54:16.669Z,100889.31
2023-06-14T08:56:45.248Z,100892.42
2023-06-14T08:59:16.812Z,100896.23
2023-06-14T09:02:07.769Z,100894.80
2023-06-14T09:04:42.667Z,100893.25
2023-06-14T09:07:11.470Z,100890.71
2023-06-14T09:09:52.916Z,100894.25
2023-06-14T09:12:32.324Z,100893.50
2023-06-14T09:15:00.199Z,100891.83
2023-06-14T09:17:31.434Z,100894.91
2023-06-14T09:20:04.364Z,100892.50
2023-06-14T09:22:37.607Z,100890.87
2023-06-14T09:25:06.558Z,100894.95
2023-06-14T09:27:36.115Z,100895.45
2023-06-14T09:30:05.161Z,100895.27
2023-06-14T09:32:32.868Z,100894.33
2023-06-14T09:35:03.600Z,100892.36
2023-06-14T09:37:31.770Z,100889.34
2023-06-14T09:39:59.656Z,100893.51
2023-06-14T09:42:27.469Z,100898.04
2023-06-14T09:44:56.561Z,100899.83
2023-06-14T09:47:26.792Z,100898.30
2023-06-14T09:50:00.467Z,100897.86
2023-06-14T09:52:28.333Z,100898.02
2023-06-14T09:54:56.205Z,100893.47
2023-06-14T09:57:24.328Z,100895.92
2023-06-14T09:59:57.240Z,100897.52
2023-06-14T10:02:39.874Z,100894.59
2023-06-14T10:05:10.483Z,100896.79
2023-06-14T10:08:10.661Z,100900.67
2023-06-14T10:10:41.953Z,100896.21
2023-06-14T10:13:10.056Z,100890.71
2023-06-14T10:16:23.555Z,100889.80
2023-06-14T10:18:54.571Z,100890.41
2023-06-14T10:21:32.842Z,100882.58
2023-06-14T10:24:16.743Z,100879.84
2023-06-14T10:26:53.576Z,100874.95
2023-06-14T10:29:25.392Z,100871.48
2023-06-14T10:31:58.209Z,100864.45
2023-06-14T10:34:30.613Z,100866.04
2023-06-14T10:37:04.157Z,100861.81
2023-06-14T10:39:33.327Z,100859.26
2023-06-14T10:42:06.969Z,100860.42
2023-06-14T10:44:55.166Z,100864.13
2023-06-14T10:47:37.971Z,100867.34
2023-06-14T10:50:10.286Z,100865.91
2023-06-14T10:52:46.971Z,100868.88
2023-06-14T10:55:24.304Z,100865.63
2023-06-14T10:58:00.257Z,100861.52
2023-06-14T11:00:35.851Z,100861.89
2023-06-14T11:03:30.360Z,100867.50
2023-06-14T11:05:59.256Z,100871.71
2023-06-14T11:08:53.714Z,100870.55
2023-06-14T11:11:27.864Z,100875.84
2023-06-14T11:13:55.540Z,100881.48
2023-06-14T11:16:24.098Z,100882.02
2023-06-14T11:18:53.933Z,100888.89
2023-06-14T11:21:26.658Z,100896.61
2023-06-14T11:23:57.621Z,100892.97
2023-06-14T11:26:35.196Z,100889.98
2023-06-14T11:29:02.876Z,100889.80
2023-06-14T11:31:32.246Z,100892.15
2023-06-14T11:34:08.395Z,100884.91
2023-06-14T11:36:36.845Z,100884.86
2023-06-14T11:39:10.043Z,100886.74
2023-06-14T11:41:46.093Z,100890.89
2023-06-14T11:44:14.268Z,100891.68
2023-06-14T11:46:42.289Z,100896.74
2023-06-14T11:49:13.537Z,100895.98
2023-06-14T11:51:42.420Z,100897.59
2023-06-14T11:54:10.248Z,100900.28
2023-06-14T11:56:38.083Z,100902.08
2023-06-14T11:59:07.332Z,100895.64
2023-06-14T12:01:40.001Z,100898.31
2023-06-14T12:04:09.297Z,100899.23
2023-06-14T12:06:41.511Z,100894.42
2023-06-14T12:09:15.240Z,100892.80
2023-06-14T12:11:43.010Z,100892.72
2023-06-14T12:14:10.929Z,100891.05
2023-06-14T12:16:43.101Z,100891.02
2023-06-14T12:19:19.874Z,100891.60
2023-06-14T12:21:52.499Z,100889.17
2023-06-14T12:24:20.480Z,100887.38
2023-06-14T12:26:48.531Z,100886.45
2023-06-14T12:29:18.938Z,100886.30
2023-06-14T12:31:47.543Z,100883.50
2023-06-14T12:34:18.171Z,100877.27
2023-06-14T12:36:47.918Z,100875.98
2023-06-14T12:39:15.557Z,100876.45
2023-06-14T12:41:43.958Z,100879.50
2023-06-14T12:44:14.390Z,100885.66
2023-06-14T12:46:55.303Z,100886.93
2023-06-14T12:49:33.074Z,100886.02
2023-06-14T12:52:01.377Z,100885.30
2023-06-14T12:54:42.407Z,100883.77
2023-06-14T12:57:15.216Z,100879.98
2023-06-14T12:59:43.215Z,100880.71
2023-06-14T13:02:16.639Z,100877.36
2023-06-14T13:04:48.031Z,100874.76
2023-06-14T13:07:16.308Z,100876.66
2023-06-14T13:09:44.362Z,100873.80
2023-06-14T13:12:14.776Z,100871.88
2023-06-14T13:14:43.436Z,100873.27
2023-06-14T13:17:14.517Z,100873.23
2023-06-14T13:19:43.642Z,100870.05
2023-06-14T13:22:13.730Z,100873.73
2023-06-14T13:24:45.139Z,100872.98
2023-06-14T13:27:15.708Z,100869.41
2023-06-14T13:29:46.520Z,100869.27
2023-06-14T13:32:14.145Z,100868.52
2023-06-14T13:34:42.087Z,100869.95
2023-06-14T13:37:10.677Z,100872.82
2023-06-14T13:39:39.419Z,100871.39
2023-06-14T13:42:10.073Z,100871.38
2023-06-14T13:44:37.744Z,100873.13
2023-06-14T13:47:05.768Z,100875.27
2023-06-14T13:49:35.674Z,100873.62
2023-06-14T13:52:04.445Z,100876.63
2023-06-14T13:54:32.663Z,100873.09
2023-06-14T13:57:01.641Z,100872.89
2023-06-14T13:59:30.392Z,100874.31
2023-06-14T14:02:22.329Z,100878.69
2023-06-14T14:04:54.754Z,100882.14
2023-06-14T14:07:24.112Z,100883.04
2023-06-14T14:09:52.308Z,100880.32
2023-06-14T14:12:20.295Z,100881.83
2023-06-14T14:14:48.861Z,100882.71
2023-06-14T14:17:19.643Z,100883.50
2023-06-14T14:19:47.770Z,100880.65
2023-06-14T14:22:15.591Z,100878.30
2023-06-14T14:24:43.555Z,100880.91
2023-06-14T14:27:11.726Z,100881.32
2023-06-14T14:29:39.649Z,100879.06
2023-06-14T14:32:14.899Z,100877.15
2023-06-14T14:34:48.311Z,100880.80
2023-06-14T14:37:20.378Z,100881.43
2023-06-14T14:39:51.184Z,100885.62
2023-06-14T14:42:33.374Z,100885.23
2023-06-14T14:45:05.555Z,100883.60
2023-06-14T14:47:33.227Z,100883.95
2023-06-14T14:50:01.413Z,100885.84
2023-06-14T14:52:31.144Z,100880.77
2023-06-14T14:54:58.706Z,100880.86
2023-06-14T14:57:26.441Z,100878.34
2023-06-14T14:59:54.778Z,100883.85
2023-06-14T15:02:24.183Z,100879.58
2023-06-14T15:04:53.370Z,100878.88
2023-06-14T15:07:21.915Z,100875.54
2023-06-14T15:09:52.399Z,100872.55
2023-06-14T15:12:21.497Z,100870.76
2023-06-14T15:14:49.123Z,100870.86
2023-06-14T15:17:16.967Z,100869.14
2023-06-14T15:19:46.186Z,100867.83
2023-06-14T15:22:13.760Z,100870.70
2023-06-14T15:24:43.923Z,100870.86
2023-06-14T15:27:13.736Z,100870.20
2023-06-14T15:29:46.216Z,100867.94
2023-06-14T15:32:14.787Z,100869.52
2023-06-14T15:34:42.378Z,100873.33
2023-06-14T15:37:10.180Z,100877.52
2023-06-14T15:39:37.994Z,100878.69
2023-06-14T15:42:06.855Z,100879.19
2023-06-14T15:44:34.446Z,100881.25
2023-06-14T15:47:01.977Z,100879.73
2023-06-14T15:49:29.583Z,100880.64
2023-06-14T15:51:58.920Z,100877.35
2023-06-14T15:54:26.571Z,100878.12
2023-06-14T15:56:54.413Z,100877.63
2023-06-14T15:59:22.798Z,100878.17
2023-06-14T16:01:50.429Z,100876.48
2023-06-14T16:04:18.200Z,100876.80
2023-06-14T16:06:46.423Z,100876.30
2023-06-14T16:09:13.995Z,100877.98
2023-06-14T16:11:42.120Z,100880.18
2023-06-14T16:14:09.812Z,100882.33
2023-06-14T16:16:40.270Z,100882.48
2023-06-14T16:19:10.193Z,100883.26
2023-06-14T16:21:38.181Z,100884.52
2023-06-14T16:24:06.266Z,100883.20
2023-06-14T16:26:35.747Z,100884.76
2023-06-14T16:29:03.450Z,100886.07
2023-06-14T16:31:30.961Z,100886.26
2023-06-14T16:33:58.570Z,100891.50
2023-06-14T16:36:26.651Z,100890.20
2023-06-14T16:38:54.608Z,100894.07
2023-06-14T16:41:22.207Z,100892.80
2023-06-14T16:43:49.947Z,100897.54
2023-06-14T16:46:18.777Z,100898.73
2023-06-14T16:48:46.420Z,100899.00
2023-06-14T16:51:13.928Z,100900.96
2023-06-14T16:53:41.667Z,100903.40
2023-06-14T16:56:09.240Z,100901.64
2023-06-14T16:58:38.929Z,100902.04
2023-06-14T17:01:06.518Z,100899.17
2023-06-14T17:03:35.294Z,100900.11
2023-06-14T17:06:02.908Z,100899.08
2023-06-14T17:08:30.473Z,100894.52
2023-06-14T17:11:01.357Z,100894.45
2023-06-14T17:13:29.114Z,100893.30
2023-06-14T17:15:56.710Z,100899.02
2023-06-14T17:18:24.372Z,100897.68
2023-06-14T17:20:52.820Z,100900.87
2023-06-14T17:23:21.005Z,100903.80
2023-06-14T17:25:48.481Z,100905.00
2023-06-14T17:28:16.070Z,100902.65
2023-06-14T17:30:44.005Z,100899.70
2023-06-14T17:33:14.859Z,100896.89
2023-06-14T17:35:43.203Z,100902.58
2023-06-14T17:38:12.743Z,100900.64
2023-06-14T17:40:49.937Z,100902.97
2023-06-14T17:43:19.435Z,100903.13
2023-06-14T17:45:47.029Z,100904.00
2023-06-14T17:48:14.645Z,100905.73
2023-06-14T17:50:42.431Z,100905.27
2023-06-14T17:53:09.978Z,100908.57
2023-06-14T17:55:37.522Z,100911.19
2023-06-14T17:58:06.477Z,100912.86
2023-06-14T18:00:34.073Z,100915.29
2023-06-14T18:03:13.393Z,100919.57
2023-06-14T18:05:45.796Z,100924.17
2023-06-14T18:08:13.747Z,100926.94
2023-06-14T18:10:41.501Z,100925.23
2023-06-14T18:13:09.224Z,100931.20
2023-06-14T18:15:37.913Z,100935.36
2023-06-14T18:18:05.771Z,100936.64
2023-06-14T18:20:33.647Z,100934.70
2023-06-14T18:23:01.174Z,100938.57
2023-06-14T18:25:28.835Z,100944.17
2023-06-14T18:27:56.519Z,100950.36
2023-06-14T18:30:24.276Z,100954.98
2023-06-14T18:32:51.992Z,100953.26
2023-06-14T18:35:19.901Z,100954.15
2023-06-14T18:37:47.851Z,100955.75
2023-06-14T18:40:15.612Z,100965.18
2023-06-14T18:42:43.628Z,100959.34
2023-06-14T18:45:11.383Z,100967.48
2023-06-14T18:47:39.087Z,100967.68
2023-06-14T18:50:07.062Z,100968.59
2023-06-14T18:52:34.732Z,100969.45
2023-06-14T18:55:05.390Z,100974.42
2023-06-14T18:57:33.654Z,100973.17
2023-06-14T19:00:01.237Z,100974.75
2023-06-14T19:02:29.238Z,100970.83
2023-06-14T19:04:56.909Z,100970.86
2023-06-14T19:07:24.411Z,100969.67
2023-06-14T19:09:51.926Z,100974.73
2023-06-14T19:12:19.536Z,100980.94
2023-06-14T19:14:47.208Z,100982.00
2023-06-14T19:17:16.567Z,100981.14
2023-06-14T19:19:46.399Z,100979.84
2023-06-14T19:22:14.954Z,100978.10
2023-06-14T19:24:42.564Z,100979.73
2023-06-14T19:27:13.279Z,100977.34
2023-06-14T19:29:40.688Z,100982.05
2023-06-14T19:32:08.640Z,100983.70
2023-06-14T19:34:36.465Z,100984.13
2023-06-14T19:37:05.646Z,100984.35
2023-06-14T19:39:33.125Z,100990.16
2023-06-14T19:42:00.595Z,100989.82
2023-06-14T19:44:28.021Z,100987.93
2023-06-14T19:46:55.765Z,100986.13
2023-06-14T19:49:23.329Z,100987.73
2023-06-14T19:51:50.973Z,100989.94
2023-06-14T19:54:18.558Z,100988.42
2023-06-14T19:56:46.537Z,100984.77
2023-06-14T19:59:14.093Z,100987.39
2023-06-14T20:01:41.786Z,100987.20
2023-06-14T20:04:09.691Z,100992.33
2023-06-14T20:06:37.622Z,100995.16
2023-06-14T20:09:12.862Z,100996.89
2023-06-14T20:11:40.925Z,100994.45
2023-06-14T20:14:08.485Z,100992.70
2023-06-14T20:16:36.106Z,100990.10
2023-06-14T20:19:04.174Z,100984.48
2023-06-14T20:21:31.779Z,100984.06
2023-06-14T20:23:59.347Z,100985.90
2023-06-14T20:26:27.525Z,100987.92
2023-06-14T20:28:55.232Z,100990.95
2023-06-14T20:31:23.539Z,100991.93
2023-06-14T20:33:51.133Z,100989.20
2023-06-14T20:36:19.488Z,100987.11
2023-06-14T20:38:47.002Z,100987.86
2023-06-14T20:41:14.561Z,100987.77
2023-06-14T20:43:44.137Z,100990.95
2023-06-14T20:46:11.719Z,100992.60
2023-06-14T20:48:39.282Z,100994.91
2023-06-14T20:51:06.889Z,100994.41
2023-06-14T20:53:34.478Z,100994.95
2023-06-14T20:56:01.963Z,100993.63
2023-06-14T20:58:29.612Z,100993.69
2023-06-14T21:00:57.905Z,100997.19
2023-06-14T21:03:26.694Z,100996.07
2023-06-14T21:05:54.392Z,100994.64
2023-06-14T21:08:21.874Z,100995.02
2023-06-14T21:10:49.387Z,100992.23
2023-06-14T21:13:16.985Z,100988.05
2023-06-14T21:15:44.745Z,100989.36
2023-06-14T21:18:12.326Z,100985.77
2023-06-14T21:20:39.950Z,100984.86
2023-06-14T21:23:07.581Z,100983.21
2023-06-14T21:25:35.157Z,100984.39
2023-06-14T21:28:02.781Z,100983.80
2023-06-14T21:30:36.884Z,100984.64
2023-06-14T21:33:04.909Z,100983.08
2023-06-14T21:35:32.524Z,100980.70
2023-06-14T21:38:00.465Z,100980.02
2023-06-14T21:40:28.098Z,100982.72
2023-06-14T21:42:55.712Z,100982.30
2023-06-14T21:45:23.467Z,100980.98
2023-06-14T21:47:51.901Z,100980.23
2023-06-14T21:50:19.907Z,100981.98
2023-06-14T21:52:47.767Z,100976.57
2023-06-14T21:55:15.436Z,100975.48
2023-06-14T21:57:42.979Z,100974.04
2023-06-14T22:00:12.360Z,100974.65
2023-06-14T22:02:39.959Z,100974.81
2023-06-14T22:05:07.800Z,100970.33
2023-06-14T22:07:35.350Z,100974.85
2023-06-14T22:10:02.958Z,100973.74
2023-06-14T22:12:30.613Z,100974.98
2023-06-14T22:14:58.469Z,100975.27
2023-06-14T22:17:27.804Z,100975.30
2023-06-14T22:19:55.483Z,100974.02
2023-06-14T22:22:26.351Z,100972.88
2023-06-14T22:24:54.035Z,100973.70
2023-06-14T22:27:22.821Z,100975.14
2023-06-14T22:29:52.769Z,100971.83
2023-06-14T22:32:21.366Z,100974.26
2023-06-14T22:34:48.924Z,100976.15
2023-06-14T22:37:19.443Z,100976.83
2023-06-14T22:39:47.084Z,100973.10
2023-06-14T22:42:19.424Z,100974.17
2023-06-14T22:44:51.774Z,100974.11
2023-06-14T22:47:21.822Z,100970.19
2023-06-14T22:50:08.371Z,100968.40
2023-06-14T22:52:41.722Z,100968.45
2023-06-14T22:55:10.050Z,100966.45
2023-06-14T22:57:39.124Z,100966.28
2023-06-14T23:00:12.392Z,100966.45
2023-06-14T23:02:40.685Z,100961.63
2023-06-14T23:05:13.176Z,100959.10
2023-06-14T23:07:41.182Z,100958.35
2023-06-14T23:10:09.392Z,100957.42
2023-06-14T23:12:36.930Z,100956.96
2023-06-14T23:15:05.593Z,100957.52
2023-06-14T23:17:33.546Z,100958.66
2023-06-14T23:20:11.428Z,100956.42
2023-06-14T23:22:43.260Z,100957.39
2023-06-14T23:25:11.177Z,100957.80
2023-06-14T23:27:39.336Z,100959.92
2023-06-14T23:30:07.936Z,100957.86
2023-06-14T23:32:36.273Z,100954.61
2023-06-14T23:35:04.686Z,100950.50
2023-06-14T23:37:32.124Z,100948.98
2023-06-14T23:40:02.320Z,100946.23
2023-06-14T23:42:33.103Z,100948.20
2023-06-14T23:45:02.733Z,100945.77
2023-06-14T23:47:35.187Z,100943.79
2023-06-14T23:50:02.933Z,100943.02
2023-06-14T23:52:32.606Z,100942.37
2023-06-14T23:55:13.336Z,100944.79
2023-06-14T23:57:41.379Z,100940.00
